GOOY

Details ICAO GOOY (DKR)
Name Dakar Leopold Sedar Senghor Intl
Region Senegal
Timezone Africa/Dakar (UTC+0.0)
Plans Departing 532
Arriving 593
Stats Elevation 85 ft / 26 m (AMSL)
Location 14.739711° -17.490226°
Runways 2
Magnetic Variation 7.288° W
Sunrise 2018-06-24 06:43:38 UTC / 2018-06-24 06:43:38 Local
Sunset 2018-06-24 19:43:32 UTC / 2018-06-24 19:43:32 Local
Advertisement - Login to hide

Runways

ID Width Length Bearing (true) Bearing (mag) Surface Threshold Offset Overrun Length
03 98 ft / 30 m 4,921 ft / 1,500 m 22.31° 29.60° Asphalt 0 ft / 0 m 98 ft / 30 m
18 148 ft / 45 m 11,511 ft / 3,509 m 172.57° 179.86° Asphalt 525 ft / 160 m 197 ft / 60 m
21 98 ft / 30 m 4,921 ft / 1,500 m 202.31° 209.60° Asphalt 0 ft / 0 m 1,590 ft / 485 m
36 148 ft / 45 m 11,511 ft / 3,509 m 352.57° 359.86° Asphalt 0 ft / 0 m 197 ft / 60 m

Approach Navaids

Runway Type Ident Frequency Range Bearing (true) Bearing (mag) Slope Elevation
36 Localiser YF 110.30 MHz 18 nm / 33 km 352.33° 359.61° - 65 ft / 20 m (AMSL)
36 Glidescope YF 110.30 MHz 10 nm / 19 km 352.57° 359.86° 3.01° 73 ft / 22 m (AMSL)
36 DME YF 110.30 MHz 18 nm / 33 km - - - 73 ft / 22 m (AMSL)

Map

Weather


0- 5 10 15 20 25 30 35+ Temperature / ° C

Clouds and Precipitation
Forecast for 2018-06-24 12:00 UTC. Updated 5 hours ago

Ground ~20,000 ft ~40,000 ft Winds

METAR

GOOY 241400Z 26008KT 9999 FEW013 29/23 Q1013

TAF

TAF GOOY 241130Z 2412/2518 28005KT 9999 SCT013= TAF GBYD 241130Z 2412/2518 22010KT 9999 SCT013

Frequencies

Tower 129.50 MHz DAKAR INFO
Tower 118.10 MHz DAKAR TWR
Approach 118.10 MHz DAKAR CON
Tower 127.30 MHz DAKAR INFO
Approach 120.50 MHz DAKAR CON
Warning: Do not use this data for real-world aviation or navigation. No guarantee of current accuracy is given.